METAR Data
IDs: Format: Raw Decoded Include TAF

Data at: 0123 UTC 24 Sep 2018

KILG 240105Z AUTO 03006KT 5SM RA BR BKN008 OVC022 16/15 A3026 RMK AO2 P0002 T01560150 $
KILG 240051Z 03007KT 5SM RA BR FEW009 OVC021 16/15 A3026 RMK AO2 SLP246 P0008 T01560150 $
KILG 240041Z 03007KT 6SM -RA BR OVC021 16/15 A3026 RMK AO2 P0007 T01560150 $
KILG 232351Z 04006KT 5SM RA BR BKN006 BKN011 OVC031 16/16 A3025 RMK AO2 SLP242 P0009 60025 T01610156 10172 20161 53008 $
KILG 232338Z 01005KT 5SM RA BR BKN009 BKN012 OVC026 16/16 A3024 RMK AO2 P0006 T01610156 $
KILG 232251Z 01006KT 10SM -RA FEW009 SCT017 OVC027 16/15 A3024 RMK AO2 SLP238 P0001 T01610150 $
KILG 232244Z 01007KT 10SM -RA SCT010 SCT017 OVC027 16/15 A3024 RMK AO2 P0001 T01610150 $
KILG 232229Z 02007KT 10SM -RA BKN010 BKN017 OVC060 17/16 A3023 RMK AO2 P0001 T01670156 $
KILG 232151Z 04004KT 10SM -RA BKN033 BKN048 OVC060 17/16 A3022 RMK AO2 SLP234 P0000 T01670161
KILG 232105Z 36005KT 10SM -RA BKN013 BKN023 OVC048 17/16 A3023 RMK AO2 P0000 T01670156
KILG 232051Z 01006KT 5SM -RA BR FEW013 BKN030 OVC048 17/16 A3022 RMK AO2 RAB37 SLP234 P0001 60015 T01670156 56002
KILG 232020Z 36005KT 10SM SCT011 BKN030 OVC047 17/16 A3022 RMK AO2 T01670156
KILG 232004Z 01004KT 10SM SCT007 BKN011 OVC045 17/16 A3022 RMK AO2 T01670156
KILG 231951Z 36005KT 10SM SCT007 BKN045 OVC070 17/16 A3022 RMK AO2 RAE43 SLP234 P0005 T01720156
KILG 231851Z VRB05KT 3SM RA BR FEW008 BKN065 OVC090 17/16 A3022 RMK AO2 SLP232 P0009 T01670156
KILG 231758Z 04007KT 10SM -RA SCT008 BKN080 OVC095 17/16 A3023 RMK AO2 P0000 T01720156
KILG 231751Z 04007KT 10SM -RA BKN008 BKN080 OVC100 17/16 A3023 RMK AO2 SLP236 P0002 60014 T01720156 10172 20156 58005
KILG 231744Z 04006KT 10SM -RA BKN008 OVC085 17/16 A3023 RMK AO2 P0002 T01720156
KILG 231741Z 05006KT 10SM -RA SCT010 OVC085 17/16 A3023 RMK AO2 P0002 T01720156
KILG 231651Z 06008KT 10SM -RA OVC008 17/16 A3024 RMK AO2 SLP241 P0001 T01670156
KILG 231610Z 06008KT 10SM -RA OVC008 17/16 A3024 RMK AO2 CIG 007V012 P0000 T01670156
KILG 231551Z 07006KT 10SM -RA BKN012 BKN090 OVC110 17/16 A3025 RMK AO2 SLP242 P0001 T01670156
KILG 231508Z 05008KT 10SM -RA BKN012 BKN090 OVC110 17/16 A3025 RMK AO2 P0001 T01670156
KILG 231451Z 06006KT 10SM -RA SCT009 SCT080 OVC110 17/15 A3024 RMK AO2 SLP241 P0004 60010 T01670150 50010
KILG 231446Z 06006KT 10SM -RA SCT009 SCT080 OVC110 16/15 A3025 RMK AO2 P0004
KILG 231351Z 07008KT 10SM -RA BKN110 16/14 A3023 RMK AO2 SLP237 P0003 T01610144
KILG 231251Z 05005KT 10SM -RA BKN120 16/14 A3021 RMK AO2 SLP231 P0003 T01560139
KILG 231151Z 02006KT 10SM -RA BKN120 16/13 A3020 RMK AO2 RAB04 SLP228 P0000 60000 T01560133 10167 20156 53001
KILG 231051Z 03006KT 10SM FEW080 SCT095 BKN120 16/13 A3020 RMK AO2 RAE12B32E43 SLP226 P0000 T01610128
KILG 230951Z AUTO 04006KT 10SM -RA FEW038 SCT110 16/13 A3019 RMK AO2 RAB29 SLP224 P0000 T01610128
KILG 230851Z AUTO 36005KT 10SM SCT042 16/13 A3020 RMK AO2 SLP226 T01610133 53001
KILG 230751Z AUTO 01005KT 10SM BKN043 16/13 A3020 RMK AO2 SLP226 T01610128
KILG 230651Z AUTO 36006KT 10SM OVC042 16/13 A3020 RMK AO2 SLP225 T01610128
KILG 230551Z AUTO 35005KT 10SM OVC040 17/13 A3020 RMK AO2 SLP226 T01670133 10178 20156 56003
KILG 230451Z AUTO 35005KT 10SM SCT041 17/13 A3020 RMK AO2 SLP228 T01670128 402560156
KILG 230351Z AUTO 01005KT 10SM FEW043 16/13 A3020 RMK AO2 SLP225 T01610128
KILG 230251Z 33005KT 10SM CLR 16/13 A3021 RMK AO2 SLP229 T01560128 51009
KILG 230151Z 35004KT 10SM CLR 16/13 A3021 RMK AO2 SLP228 T01610128
KILG 230051Z 35006KT 10SM BKN110 18/12 A3020 RMK AO2 SLP227 T01780117
KILG 222351Z 04005KT 10SM OVC100 18/12 A3018 RMK AO2 SLP220 60000 T01780117 10256 20178 50005
KILG 222251Z 36006KT 10SM OVC110 18/12 A3019 RMK AO2 SLP221 T01780117
KILG 222151Z 36009KT 10SM FEW095 OVC120 18/12 A3018 RMK AO2 SLP219 T01830117
KILG 222051Z 36009KT 10SM BKN120 19/12 A3017 RMK AO2 RAB1959E16 SLP215 P0000 60000 T01940117 51012
KILG 221951Z 35010KT 10SM CLR 21/12 A3015 RMK AO2 SLP210 T02060117
KILG 221851Z 36011KT 10SM CLR 23/13 A3015 RMK AO2 SLP209 T02330128
KILG 221751Z 36010KT 10SM CLR 25/14 A3013 RMK AO2 SLP203 60000 T02500144 10256 20228 50001
KILG 221651Z 04010KT 10SM CLR 25/15 A3013 RMK AO2 SLP204 T02500150
KILG 221551Z 02011KT 10SM CLR 23/15 A3013 RMK AO2 SLP204 T02280150
KILG 221451Z 33010KT 10SM CLR 23/16 A3013 RMK AO2 SLP202 60000 T02330161 53018
KILG 221351Z 34011KT 10SM CLR 24/14 A3011 RMK AO2 SLP195 T02390144